createdAt,value
2023-03-24T00:00:21.683Z,10.50
2023-03-24T00:01:02.312Z,10.20
2023-03-24T00:01:34.077Z,10.20
2023-03-24T00:02:07.081Z,10.20
2023-03-24T00:02:42.007Z,10.40
2023-03-24T00:03:17.247Z,10.30
2023-03-24T00:03:52.116Z,10.20
2023-03-24T00:04:27.662Z,10.20
2023-03-24T00:04:59.497Z,10.20
2023-03-24T00:05:31.407Z,10.20
2023-03-24T00:06:05.131Z,10.20
2023-03-24T00:06:36.938Z,10.20
2023-03-24T00:07:14.731Z,10.20
2023-03-24T00:07:47.052Z,10.20
2023-03-24T00:08:18.893Z,10.20
2023-03-24T00:08:50.785Z,10.20
2023-03-24T00:09:22.681Z,10.10
2023-03-24T00:09:54.516Z,10.40
2023-03-24T00:10:30.535Z,10.10
2023-03-24T00:11:06.367Z,10.10
2023-03-24T00:11:38.449Z,10.10
2023-03-24T00:12:13.910Z,10.10
2023-03-24T00:12:46.748Z,10.20
2023-03-24T00:13:18.545Z,10.10
2023-03-24T00:13:50.710Z,10.10
2023-03-24T00:14:23.415Z,10.20
2023-03-24T00:14:55.223Z,10.10
2023-03-24T00:15:27.957Z,10.10
2023-03-24T00:15:59.986Z,10.10
2023-03-24T00:16:34.858Z,10.10
2023-03-24T00:17:12.594Z,10.30
2023-03-24T00:17:45.349Z,10.10
2023-03-24T00:18:18.338Z,10.10
2023-03-24T00:18:53.536Z,10.10
2023-03-24T00:19:26.274Z,10.10
2023-03-24T00:19:58.087Z,10.10
2023-03-24T00:20:30.026Z,10.10
2023-03-24T00:21:01.816Z,10.10
2023-03-24T00:21:33.665Z,10.00
2023-03-24T00:22:14.174Z,10.10
2023-03-24T00:22:50.664Z,10.00
2023-03-24T00:23:23.547Z,10.00
2023-03-24T00:23:58.233Z,10.00
2023-03-24T00:24:30.114Z,10.10
2023-03-24T00:25:04.334Z,10.00
2023-03-24T00:25:36.540Z,10.10
2023-03-24T00:26:15.602Z,10.00
2023-03-24T00:26:48.756Z,10.00
2023-03-24T00:27:21.059Z,10.00
2023-03-24T00:27:53.227Z,10.00
2023-03-24T00:28:25.187Z,10.00
2023-03-24T00:28:57.958Z,10.00
2023-03-24T00:29:30.138Z,10.10
2023-03-24T00:30:04.355Z,10.30
2023-03-24T00:30:36.314Z,10.00
2023-03-24T00:31:08.880Z,10.00
2023-03-24T00:31:41.278Z,10.00
2023-03-24T00:32:13.151Z,10.00
2023-03-24T00:32:46.238Z,10.00
2023-03-24T00:33:18.300Z,10.00
2023-03-24T00:33:51.262Z,10.00
2023-03-24T00:34:23.652Z,10.00
2023-03-24T00:34:55.413Z,10.00
2023-03-24T00:35:27.879Z,10.00
2023-03-24T00:36:00.862Z,10.00
2023-03-24T00:36:32.691Z,10.00
2023-03-24T00:37:06.068Z,10.00
2023-03-24T00:37:39.308Z,10.00
2023-03-24T00:38:12.167Z,9.90
2023-03-24T00:38:44.448Z,10.00
2023-03-24T00:39:19.746Z,9.90
2023-03-24T00:39:51.748Z,10.00
2023-03-24T00:40:23.727Z,10.00
2023-03-24T00:40:55.756Z,10.00
2023-03-24T00:41:28.902Z,9.90
2023-03-24T00:42:03.729Z,9.90
2023-03-24T00:42:36.925Z,10.00
2023-03-24T00:43:09.149Z,9.90
2023-03-24T00:43:41.521Z,9.90
2023-03-24T00:44:18.154Z,9.90
2023-03-24T00:44:53.868Z,9.90
2023-03-24T00:45:25.657Z,9.90
2023-03-24T00:46:01.964Z,9.90
2023-03-24T00:46:34.052Z,10.00
2023-03-24T00:47:05.964Z,9.90
2023-03-24T00:47:38.045Z,9.90
2023-03-24T00:48:11.232Z,9.90
2023-03-24T00:48:43.209Z,9.90
2023-03-24T00:49:15.618Z,9.90
2023-03-24T00:49:48.199Z,9.90
2023-03-24T00:50:20.767Z,9.90
2023-03-24T00:50:53.098Z,10.00
2023-03-24T00:51:25.105Z,9.90
2023-03-24T00:51:58.217Z,9.90
2023-03-24T00:52:33.914Z,9.90
2023-03-24T00:53:06.086Z,9.90
2023-03-24T00:53:43.508Z,9.90
2023-03-24T00:54:16.226Z,9.90
2023-03-24T00:54:50.212Z,9.90
2023-03-24T00:55:23.080Z,9.90
2023-03-24T00:55:56.410Z,9.90
2023-03-24T00:56:32.377Z,9.90
2023-03-24T00:57:05.441Z,9.90
2023-03-24T00:57:37.395Z,9.90
2023-03-24T00:58:09.461Z,9.90
2023-03-24T00:58:41.616Z,9.90
2023-03-24T00:59:13.923Z,9.80
2023-03-24T00:59:48.751Z,9.80
2023-03-24T01:00:26.131Z,9.80
2023-03-24T01:00:58.626Z,9.80
2023-03-24T01:01:34.740Z,10.10
2023-03-24T01:02:11.700Z,9.80
2023-03-24T01:02:46.397Z,9.80
2023-03-24T01:03:22.090Z,9.80
2023-03-24T01:03:54.424Z,9.90
2023-03-24T01:04:26.454Z,9.80
2023-03-24T01:05:02.076Z,9.80
2023-03-24T01:05:33.872Z,9.80
2023-03-24T01:06:05.853Z,9.80
2023-03-24T01:06:38.898Z,9.80
2023-03-24T01:07:11.226Z,9.90
2023-03-24T01:07:43.690Z,9.80
2023-03-24T01:08:21.877Z,9.80
2023-03-24T01:08:54.081Z,9.80
2023-03-24T01:09:26.061Z,9.80
2023-03-24T01:09:58.559Z,9.80
2023-03-24T01:10:33.411Z,10.10
2023-03-24T01:11:06.600Z,9.80
2023-03-24T01:11:41.211Z,9.80
2023-03-24T01:12:13.110Z,9.90
2023-03-24T01:12:44.987Z,9.80
2023-03-24T01:13:25.975Z,9.80
2023-03-24T01:13:58.529Z,9.70
2023-03-24T01:14:33.728Z,9.90
2023-03-24T01:15:15.272Z,9.80
2023-03-24T01:15:48.561Z,9.80
2023-03-24T01:16:25.546Z,9.70
2023-03-24T01:16:57.889Z,9.80
2023-03-24T01:17:29.803Z,9.80
2023-03-24T01:18:02.644Z,9.70
2023-03-24T01:18:35.012Z,9.80
2023-03-24T01:19:09.025Z,9.80
2023-03-24T01:19:41.369Z,9.70
2023-03-24T01:20:13.645Z,10.00
2023-03-24T01:20:48.962Z,9.70
2023-03-24T01:21:20.785Z,9.70
2023-03-24T01:21:54.311Z,9.70
2023-03-24T01:22:30.781Z,9.70
2023-03-24T01:23:05.669Z,9.70
2023-03-24T01:23:38.718Z,9.70
2023-03-24T01:24:10.944Z,9.70
2023-03-24T01:24:43.626Z,9.70
2023-03-24T01:25:19.027Z,9.70
2023-03-24T01:25:52.477Z,9.70
2023-03-24T01:26:24.244Z,10.00
2023-03-24T01:26:56.014Z,10.10
2023-03-24T01:27:27.912Z,9.80
2023-03-24T01:27:59.741Z,9.70
2023-03-24T01:28:31.913Z,9.70
2023-03-24T01:29:03.734Z,9.70
2023-03-24T01:29:35.512Z,9.70
2023-03-24T01:30:09.111Z,9.80
2023-03-24T01:30:41.126Z,9.70
2023-03-24T01:31:13.685Z,9.90
2023-03-24T01:31:45.595Z,10.00
2023-03-24T01:32:17.435Z,9.90
2023-03-24T01:32:51.098Z,9.70
2023-03-24T01:33:22.968Z,9.70
2023-03-24T01:33:54.865Z,9.70
2023-03-24T01:34:26.720Z,9.70
2023-03-24T01:34:58.557Z,9.80
2023-03-24T01:35:30.771Z,13.30
2023-03-24T01:36:35.276Z,9.70
2023-03-24T01:37:07.257Z,10.10
2023-03-24T01:37:40.346Z,9.70
2023-03-24T01:38:14.067Z,9.70
2023-03-24T01:38:46.038Z,9.70
2023-03-24T01:39:17.888Z,9.90
2023-03-24T01:39:51.624Z,10.00
2023-03-24T01:40:35.671Z,9.70
2023-03-24T01:41:07.817Z,9.70
2023-03-24T01:41:41.881Z,9.70
2023-03-24T01:42:22.938Z,9.70
2023-03-24T01:42:55.230Z,9.70
2023-03-24T01:43:32.886Z,9.70
2023-03-24T01:44:25.600Z,9.70
2023-03-24T01:45:39.219Z,9.70
2023-03-24T01:46:18.724Z,9.60
2023-03-24T01:46:50.541Z,9.70
2023-03-24T01:47:22.322Z,9.70
2023-03-24T01:47:56.000Z,9.70
2023-03-24T01:48:42.653Z,9.70
2023-03-24T01:49:14.584Z,9.60
2023-03-24T01:49:56.296Z,9.60
2023-03-24T01:50:29.843Z,9.90
2023-03-24T01:51:12.615Z,9.90
2023-03-24T01:51:47.395Z,9.70
2023-03-24T01:52:24.943Z,9.70
2023-03-24T01:52:56.999Z,9.70
2023-03-24T01:53:31.984Z,9.80
2023-03-24T01:54:18.552Z,9.70
2023-03-24T01:54:57.025Z,9.60
2023-03-24T01:55:32.575Z,9.70
2023-03-24T01:56:07.949Z,9.70
2023-03-24T01:56:48.690Z,9.70
2023-03-24T01:57:43.778Z,9.70
2023-03-24T01:58:17.117Z,9.60
2023-03-24T01:59:06.378Z,9.70
2023-03-24T01:59:49.311Z,9.60
2023-03-24T02:00:45.179Z,9.80
2023-03-24T02:01:46.694Z,9.60
2023-03-24T02:02:35.784Z,9.60
2023-03-24T02:03:18.321Z,9.90
2023-03-24T02:03:58.815Z,9.70
2023-03-24T02:04:41.049Z,9.60
2023-03-24T02:05:15.126Z,9.70
2023-03-24T02:05:52.469Z,9.70
2023-03-24T02:06:27.780Z,9.60
2023-03-24T02:07:18.448Z,9.60
2023-03-24T02:08:11.187Z,9.60
2023-03-24T02:08:54.931Z,9.60
2023-03-24T02:09:27.570Z,9.60
2023-03-24T02:10:05.238Z,9.60
2023-03-24T02:10:38.452Z,9.60
2023-03-24T02:11:10.755Z,9.60
2023-03-24T02:11:52.232Z,9.60
2023-03-24T02:12:24.568Z,9.80
2023-03-24T02:12:57.820Z,9.60
2023-03-24T02:13:30.099Z,9.90
2023-03-24T02:14:02.725Z,9.70
2023-03-24T02:14:34.939Z,9.50
2023-03-24T02:15:08.640Z,9.60
2023-03-24T02:16:18.470Z,9.60
2023-03-24T02:16:59.249Z,9.60
2023-03-24T02:17:38.213Z,9.60
2023-03-24T02:18:27.548Z,9.50
2023-03-24T02:18:59.361Z,9.50
2023-03-24T02:19:57.207Z,9.50
2023-03-24T02:20:35.269Z,9.50
2023-03-24T02:21:16.691Z,9.50
2023-03-24T02:22:14.744Z,9.70
2023-03-24T02:22:52.505Z,9.50
2023-03-24T02:23:53.090Z,9.50
2023-03-24T02:24:42.805Z,9.50
2023-03-24T02:25:49.599Z,9.50
2023-03-24T02:26:50.670Z,9.50
2023-03-24T02:27:48.790Z,9.50
2023-03-24T02:28:46.410Z,9.50
2023-03-24T02:29:39.165Z,9.50
2023-03-24T02:30:22.244Z,9.50
2023-03-24T02:31:06.408Z,9.40
2023-03-24T02:31:51.346Z,9.40
2023-03-24T02:32:52.140Z,9.50
2023-03-24T02:33:48.470Z,9.50
2023-03-24T02:34:35.926Z,9.50
2023-03-24T02:35:13.517Z,9.50
2023-03-24T02:36:24.878Z,9.40
2023-03-24T02:37:12.684Z,9.50
2023-03-24T02:38:03.790Z,9.40
2023-03-24T02:39:03.035Z,9.40
2023-03-24T02:39:38.057Z,9.40
2023-03-24T02:40:23.412Z,9.40
2023-03-24T02:40:57.759Z,9.40
2023-03-24T02:42:28.347Z,9.40
2023-03-24T02:43:03.080Z,9.40
2023-03-24T02:43:56.154Z,9.50
2023-03-24T02:44:51.549Z,9.40
2023-03-24T02:46:05.308Z,9.40
2023-03-24T02:46:46.948Z,9.40
2023-03-24T02:47:55.708Z,9.30
2023-03-24T02:48:48.901Z,9.40
2023-03-24T02:49:41.689Z,9.40
2023-03-24T02:50:39.828Z,9.40
2023-03-24T02:51:25.398Z,9.30
2023-03-24T02:52:16.713Z,9.30
2023-03-24T02:53:08.728Z,9.30
2023-03-24T02:54:13.722Z,9.30
2023-03-24T02:54:48.360Z,9.30
2023-03-24T02:55:32.913Z,9.60
2023-03-24T02:56:27.350Z,9.30
2023-03-24T02:57:40.664Z,9.30
2023-03-24T02:58:52.096Z,9.20
2023-03-24T02:59:40.547Z,9.30
2023-03-24T03:01:03.334Z,9.50
2023-03-24T03:01:58.759Z,9.40
2023-03-24T03:02:55.887Z,9.40
2023-03-24T03:03:38.297Z,9.30
2023-03-24T03:04:15.690Z,9.30
2023-03-24T03:04:56.700Z,9.30
2023-03-24T03:05:38.715Z,9.60
2023-03-24T03:06:22.111Z,9.60
2023-03-24T03:06:59.017Z,9.20
2023-03-24T03:07:37.408Z,9.30
2023-03-24T03:08:14.564Z,9.20
2023-03-24T03:08:48.388Z,9.20
2023-03-24T03:09:23.143Z,9.20
2023-03-24T03:10:04.036Z,9.20
2023-03-24T03:10:43.827Z,9.20
2023-03-24T03:11:17.802Z,9.30
2023-03-24T03:11:56.521Z,9.30
2023-03-24T03:12:34.432Z,9.30
2023-03-24T03:13:17.755Z,9.40
2023-03-24T03:13:57.961Z,9.20
2023-03-24T03:14:35.906Z,9.30
2023-03-24T03:15:37.672Z,9.20
2023-03-24T03:16:17.886Z,9.20
2023-03-24T03:17:00.706Z,9.30
2023-03-24T03:17:38.707Z,9.20
2023-03-24T03:18:40.523Z,9.40
2023-03-24T03:19:22.585Z,9.30
2023-03-24T03:20:02.204Z,9.50
2023-03-24T03:20:42.661Z,9.20
2023-03-24T03:21:18.132Z,9.20
2023-03-24T03:21:52.382Z,9.20
2023-03-24T03:22:30.976Z,9.30
2023-03-24T03:23:08.344Z,9.20
2023-03-24T03:23:47.756Z,9.20
2023-03-24T03:24:32.279Z,9.70
2023-03-24T03:25:05.403Z,9.20
2023-03-24T03:25:46.259Z,9.20
2023-03-24T03:26:24.054Z,9.20
2023-03-24T03:27:05.504Z,9.20
2023-03-24T03:27:40.056Z,9.20
2023-03-24T03:28:17.913Z,9.20
2023-03-24T03:28:58.296Z,9.20
2023-03-24T03:29:36.885Z,9.20
2023-03-24T03:30:18.348Z,9.20
2023-03-24T03:31:05.803Z,9.20
2023-03-24T03:31:53.018Z,9.20
2023-03-24T03:32:30.492Z,9.20
2023-03-24T03:33:10.272Z,9.20
2023-03-24T03:34:16.232Z,9.20
2023-03-24T03:35:01.418Z,9.20
2023-03-24T03:35:46.065Z,9.10
2023-03-24T03:36:52.270Z,9.20
2023-03-24T03:37:47.074Z,9.20
2023-03-24T03:38:41.826Z,9.20
2023-03-24T03:39:27.547Z,9.20
2023-03-24T03:40:06.681Z,9.10
2023-03-24T03:40:50.922Z,9.20
2023-03-24T03:41:25.572Z,9.50
2023-03-24T03:41:57.907Z,9.20
2023-03-24T03:42:30.849Z,9.10
2023-03-24T03:43:05.445Z,9.10
2023-03-24T03:43:37.928Z,9.20
2023-03-24T03:44:11.773Z,9.40
2023-03-24T03:44:44.126Z,9.10
2023-03-24T03:45:16.106Z,9.40
2023-03-24T03:45:48.451Z,9.10
2023-03-24T03:46:21.023Z,9.10
2023-03-24T03:46:55.400Z,9.20
2023-03-24T03:47:37.006Z,9.10
2023-03-24T03:48:08.931Z,9.10
2023-03-24T03:48:41.701Z,9.20
2023-03-24T03:49:13.630Z,9.10
2023-03-24T03:49:46.094Z,9.20
2023-03-24T03:50:18.016Z,9.10
2023-03-24T03:50:53.401Z,9.20
2023-03-24T03:51:34.076Z,9.10
2023-03-24T03:52:06.209Z,9.10
2023-03-24T03:52:41.519Z,6.40
2023-03-24T03:53:18.777Z,9.10
2023-03-24T03:54:01.067Z,9.30
2023-03-24T03:54:36.144Z,9.10
2023-03-24T03:55:10.010Z,9.10
2023-03-24T03:55:42.432Z,9.00
2023-03-24T03:56:18.314Z,9.10
2023-03-24T03:57:01.372Z,9.40
2023-03-24T03:57:42.577Z,9.00
2023-03-24T03:58:23.333Z,9.00
2023-03-24T03:59:01.378Z,9.00
2023-03-24T03:59:36.322Z,9.20
2023-03-24T04:00:20.391Z,9.10
2023-03-24T04:01:19.307Z,9.00
2023-03-24T04:02:56.208Z,9.10
2023-03-24T04:03:53.093Z,9.00
2023-03-24T04:04:59.754Z,9.00
2023-03-24T04:06:25.250Z,9.00
2023-03-24T04:07:24.189Z,9.00
2023-03-24T04:08:18.046Z,9.00
2023-03-24T04:09:21.304Z,9.00
2023-03-24T04:10:05.305Z,9.00
2023-03-24T04:10:45.510Z,9.00
2023-03-24T04:11:40.868Z,9.00
2023-03-24T04:12:24.505Z,9.00
2023-03-24T04:13:45.521Z,9.00
2023-03-24T04:14:57.361Z,9.00
2023-03-24T04:15:58.196Z,9.00
2023-03-24T04:17:14.670Z,8.90
2023-03-24T04:18:11.724Z,9.00
2023-03-24T04:19:28.975Z,9.00
2023-03-24T04:20:24.228Z,9.00
2023-03-24T04:21:10.168Z,8.90
2023-03-24T04:22:09.550Z,8.90
2023-03-24T04:23:00.515Z,8.90
2023-03-24T04:24:13.452Z,8.90
2023-03-24T04:25:14.248Z,8.90
2023-03-24T04:25:58.610Z,8.90
2023-03-24T04:26:45.381Z,11.40
2023-03-24T04:27:46.372Z,8.90
2023-03-24T04:28:31.484Z,8.90
2023-03-24T04:29:13.164Z,12.40
2023-03-24T04:30:06.193Z,8.80
2023-03-24T04:30:55.964Z,8.90
2023-03-24T04:32:02.259Z,8.80
2023-03-24T04:32:51.307Z,8.80
2023-03-24T04:33:48.669Z,8.80
2023-03-24T04:34:29.102Z,8.80
2023-03-24T04:35:10.177Z,8.80
2023-03-24T04:36:42.144Z,12.60
2023-03-24T04:37:48.680Z,8.80
2023-03-24T04:38:28.562Z,8.80
2023-03-24T04:39:19.739Z,8.80
2023-03-24T04:39:58.613Z,8.80
2023-03-24T04:40:36.680Z,8.80
2023-03-24T04:41:09.573Z,8.80
2023-03-24T04:41:45.192Z,8.80
2023-03-24T04:42:34.118Z,8.80
2023-03-24T04:43:09.622Z,8.80
2023-03-24T04:43:41.908Z,8.80
2023-03-24T04:44:17.660Z,8.80
2023-03-24T04:45:08.360Z,8.80
2023-03-24T04:46:05.532Z,8.70
2023-03-24T04:47:00.688Z,8.80
2023-03-24T04:47:54.375Z,8.80
2023-03-24T04:48:37.447Z,11.90
2023-03-24T04:49:15.564Z,8.80
2023-03-24T04:49:49.100Z,9.40
2023-03-24T04:50:36.841Z,8.70
2023-03-24T04:51:13.042Z,8.80
2023-03-24T04:52:03.069Z,8.80
2023-03-24T04:52:39.986Z,8.70
2023-03-24T04:53:11.940Z,8.80
2023-03-24T04:53:44.964Z,8.70
2023-03-24T04:54:16.712Z,8.70
2023-03-24T04:55:54.460Z,8.70
2023-03-24T04:56:54.986Z,8.70
2023-03-24T04:57:29.118Z,8.70
2023-03-24T04:58:06.002Z,8.70
2023-03-24T04:58:37.892Z,8.80
2023-03-24T04:59:09.789Z,8.70
2023-03-24T05:01:21.523Z,8.80
2023-03-24T05:02:13.070Z,8.80
2023-03-24T05:03:05.053Z,8.80
2023-03-24T05:03:37.951Z,8.80
2023-03-24T05:04:10.437Z,8.80
2023-03-24T05:06:05.783Z,8.80
2023-03-24T05:06:38.326Z,8.80
2023-03-24T05:20:19.010Z,8.80
2023-03-24T05:20:54.703Z,8.80
2023-03-24T05:21:27.555Z,8.70
2023-03-24T05:23:38.733Z,8.80
2023-03-24T05:24:12.295Z,8.70
2023-03-24T05:24:44.096Z,8.70
2023-03-24T05:25:48.866Z,8.70
2023-03-24T05:26:21.696Z,8.70
2023-03-24T05:27:06.842Z,8.60
2023-03-24T05:28:22.094Z,8.60
2023-03-24T05:29:27.856Z,8.60
2023-03-24T05:31:16.965Z,8.70
2023-03-24T05:33:40.546Z,8.70
2023-03-24T05:34:15.799Z,8.70
2023-03-24T05:41:18.961Z,8.70
2023-03-24T05:58:39.560Z,8.60
2023-03-24T06:00:16.208Z,8.50
2023-03-24T06:01:42.260Z,8.50
2023-03-24T06:02:25.081Z,8.50
2023-03-24T06:03:03.492Z,8.40
2023-03-24T06:03:41.879Z,8.50
2023-03-24T06:04:51.704Z,8.50
2023-03-24T06:06:00.143Z,8.50
2023-03-24T06:06:32.119Z,8.50
2023-03-24T06:07:42.450Z,8.50
2023-03-24T06:08:46.988Z,8.50
2023-03-24T06:11:04.058Z,8.40
2023-03-24T06:12:14.483Z,8.40
2023-03-24T06:12:56.091Z,8.40
2023-03-24T06:13:31.083Z,8.50
2023-03-24T06:14:43.853Z,8.40
2023-03-24T06:15:54.617Z,8.40
2023-03-24T06:16:39.925Z,8.40
2023-03-24T06:17:15.676Z,8.40
2023-03-24T06:18:36.749Z,8.40
2023-03-24T06:19:22.489Z,8.40
2023-03-24T06:20:15.982Z,8.40
2023-03-24T06:20:57.765Z,8.40
2023-03-24T06:21:35.325Z,8.30
2023-03-24T06:23:19.815Z,8.40
2023-03-24T06:24:24.007Z,8.40
2023-03-24T06:26:20.935Z,8.40
2023-03-24T06:27:02.471Z,8.40
2023-03-24T06:29:21.596Z,8.40
2023-03-24T06:29:53.393Z,8.30
2023-03-24T06:30:25.730Z,8.30
2023-03-24T06:34:29.181Z,8.30
2023-03-24T06:37:45.917Z,8.30
2023-03-24T06:38:19.914Z,8.30
2023-03-24T06:40:35.671Z,8.40
2023-03-24T06:41:09.087Z,8.30
2023-03-24T06:41:40.857Z,8.30
2023-03-24T06:42:13.047Z,8.30
2023-03-24T06:45:26.758Z,8.40
2023-03-24T06:46:32.565Z,8.40
2023-03-24T06:47:38.502Z,8.40
2023-03-24T06:49:15.435Z,8.30
2023-03-24T06:50:19.510Z,8.30
2023-03-24T06:51:24.839Z,8.30
2023-03-24T06:51:56.747Z,8.40
2023-03-24T06:52:30.790Z,8.30
2023-03-24T06:54:10.875Z,8.30
2023-03-24T06:54:42.670Z,8.30
2023-03-24T06:55:14.615Z,8.30
2023-03-24T06:55:47.217Z,8.30
2023-03-24T06:56:21.102Z,8.20
2023-03-24T06:58:27.992Z,8.10
2023-03-24T06:59:13.651Z,8.20
2023-03-24T06:59:46.140Z,8.20
2023-03-24T07:00:19.288Z,8.20
2023-03-24T07:01:49.576Z,8.20
2023-03-24T07:04:26.803Z,8.10
2023-03-24T07:05:19.044Z,8.20
2023-03-24T07:05:50.881Z,8.20
2023-03-24T07:06:23.225Z,8.20
2023-03-24T07:07:14.698Z,8.20
2023-03-24T07:08:42.912Z,8.20
2023-03-24T07:09:15.020Z,8.10
2023-03-24T07:09:46.735Z,8.10
2023-03-24T07:10:19.634Z,8.20
2023-03-24T07:10:51.485Z,8.20
2023-03-24T07:11:23.509Z,8.20
2023-03-24T07:12:03.359Z,8.20
2023-03-24T07:12:35.536Z,8.20
2023-03-24T07:13:08.278Z,8.20
2023-03-24T07:13:41.850Z,8.20
2023-03-24T07:14:13.630Z,8.10
2023-03-24T07:15:18.776Z,8.20
2023-03-24T07:15:51.312Z,8.20
2023-03-24T07:17:04.529Z,8.10
2023-03-24T07:17:47.746Z,8.10
2023-03-24T07:18:32.276Z,8.10
2023-03-24T07:19:45.862Z,8.10
2023-03-24T07:20:38.421Z,8.10
2023-03-24T07:21:21.606Z,8.10
2023-03-24T07:23:38.531Z,11.60
2023-03-24T07:25:04.667Z,8.10
2023-03-24T07:25:44.795Z,8.10
2023-03-24T07:26:29.468Z,8.10
2023-03-24T07:27:05.402Z,8.10
2023-03-24T07:27:42.783Z,8.10
2023-03-24T07:28:14.820Z,8.10
2023-03-24T07:28:47.297Z,8.10
2023-03-24T07:29:27.707Z,8.20
2023-03-24T07:30:29.998Z,8.20
2023-03-24T07:31:38.097Z,8.10
2023-03-24T07:33:17.653Z,8.20
2023-03-24T07:33:50.436Z,8.20
2023-03-24T07:34:22.596Z,8.20
2023-03-24T07:34:54.748Z,8.20
2023-03-24T07:35:59.471Z,8.20
2023-03-24T07:37:04.734Z,8.20
2023-03-24T07:37:37.300Z,8.20
2023-03-24T07:38:10.535Z,8.10
2023-03-24T07:38:42.515Z,8.20
2023-03-24T07:39:20.961Z,8.20
2023-03-24T07:39:53.263Z,8.20
2023-03-24T07:40:25.137Z,8.30
2023-03-24T07:41:33.167Z,8.30
2023-03-24T07:42:09.910Z,8.20
2023-03-24T07:43:18.742Z,8.30
2023-03-24T07:44:44.793Z,8.20
2023-03-24T07:45:17.836Z,8.20
2023-03-24T07:45:50.223Z,8.20
2023-03-24T07:46:22.392Z,8.20
2023-03-24T07:47:27.562Z,8.30
2023-03-24T07:48:03.572Z,8.30
2023-03-24T07:50:32.316Z,8.30
2023-03-24T07:51:05.132Z,8.30
2023-03-24T07:51:58.803Z,8.30
2023-03-24T07:53:11.246Z,8.30
2023-03-24T07:54:18.709Z,8.30
2023-03-24T07:54:53.160Z,8.30
2023-03-24T07:55:42.413Z,8.30
2023-03-24T07:56:19.173Z,8.30
2023-03-24T07:57:30.237Z,8.40
2023-03-24T07:58:03.474Z,8.40
2023-03-24T07:58:35.301Z,8.40
2023-03-24T07:59:19.304Z,8.40
2023-03-24T07:59:53.876Z,8.30
2023-03-24T08:00:44.637Z,8.30
2023-03-24T08:01:30.029Z,8.40
2023-03-24T08:05:16.639Z,8.50
2023-03-24T08:06:55.775Z,8.40
2023-03-24T08:08:00.166Z,8.50
2023-03-24T08:09:04.698Z,8.50
2023-03-24T08:09:36.650Z,8.50
2023-03-24T08:10:11.197Z,8.50
2023-03-24T08:10:42.999Z,8.60
2023-03-24T08:11:14.790Z,8.60
2023-03-24T08:12:52.810Z,8.70
2023-03-24T08:13:58.219Z,8.70
2023-03-24T08:15:02.749Z,8.70
2023-03-24T08:17:12.548Z,8.70
2023-03-24T08:18:50.543Z,8.70
2023-03-24T08:19:22.316Z,8.70
2023-03-24T08:21:36.965Z,8.70
2023-03-24T09:33:34.118Z,9.40
2023-03-24T09:49:34.702Z,9.60
2023-03-24T09:51:22.424Z,9.70
2023-03-24T10:03:22.863Z,9.90
2023-03-24T10:12:38.361Z,10.00
2023-03-24T10:22:44.142Z,10.20
2023-03-24T10:27:06.769Z,10.20
2023-03-24T10:41:23.478Z,10.40
2023-03-24T10:49:12.043Z,10.60
2023-03-24T11:36:47.544Z,11.30
2023-03-24T11:42:14.961Z,11.50
2023-03-24T11:44:22.934Z,11.50
2023-03-24T11:55:48.063Z,11.70
2023-03-24T11:56:39.817Z,11.70
2023-03-24T11:57:25.957Z,11.70
2023-03-24T11:58:01.084Z,11.60
2023-03-24T11:58:35.908Z,11.70
2023-03-24T12:03:01.756Z,11.80
2023-03-24T12:03:48.599Z,11.80
2023-03-24T12:09:42.733Z,11.90
2023-03-24T12:12:20.248Z,11.90
2023-03-24T12:14:41.117Z,11.90
2023-03-24T12:16:20.787Z,11.90
2023-03-24T12:18:35.148Z,11.90
2023-03-24T12:20:53.916Z,12.00
2023-03-24T12:22:43.453Z,12.00
2023-03-24T12:24:50.239Z,12.00
2023-03-24T12:33:47.803Z,12.10
2023-03-24T12:36:31.729Z,12.10
2023-03-24T12:37:33.095Z,12.10
2023-03-24T12:38:34.296Z,12.10
2023-03-24T12:40:17.908Z,12.10
2023-03-24T12:42:25.774Z,12.00
2023-03-24T12:44:28.682Z,12.10
2023-03-24T12:49:06.932Z,12.20
2023-03-24T12:49:41.452Z,12.10
2023-03-24T12:50:31.639Z,12.20
2023-03-24T12:51:10.547Z,12.20
2023-03-24T12:51:58.609Z,12.10
2023-03-24T12:52:30.317Z,12.10
2023-03-24T12:53:16.171Z,12.10
2023-03-24T12:54:06.217Z,12.10
2023-03-24T12:55:06.465Z,12.10
2023-03-24T12:55:56.097Z,12.10
2023-03-24T12:56:37.818Z,12.00
2023-03-24T12:57:15.672Z,12.00
2023-03-24T12:57:56.572Z,12.00
2023-03-24T12:58:42.979Z,13.50
2023-03-24T12:59:50.526Z,12.00
2023-03-24T13:00:30.875Z,12.00
2023-03-24T13:01:14.293Z,12.30
2023-03-24T13:01:52.813Z,12.00
2023-03-24T13:02:34.175Z,12.00
2023-03-24T13:03:14.302Z,12.00
2023-03-24T13:04:00.438Z,12.00
2023-03-24T13:04:37.814Z,12.00
2023-03-24T13:05:18.844Z,12.00
2023-03-24T13:05:59.760Z,12.00
2023-03-24T13:06:49.904Z,12.00
2023-03-24T13:07:28.388Z,12.00
2023-03-24T13:08:08.225Z,12.00
2023-03-24T13:08:45.138Z,10.10
2023-03-24T13:09:27.615Z,12.00
2023-03-24T13:10:02.100Z,12.30
2023-03-24T13:10:40.874Z,12.00
2023-03-24T13:11:31.940Z,11.90
2023-03-24T13:12:24.593Z,12.00
2023-03-24T13:13:06.134Z,12.00
2023-03-24T13:13:43.772Z,12.00
2023-03-24T13:14:25.239Z,12.00
2023-03-24T13:15:11.976Z,12.00
2023-03-24T13:15:52.225Z,12.00
2023-03-24T13:16:31.510Z,12.00
2023-03-24T13:17:11.805Z,13.60
2023-03-24T13:18:21.243Z,12.00
2023-03-24T13:18:56.670Z,12.00
2023-03-24T13:19:30.363Z,12.10
2023-03-24T13:20:07.064Z,12.00
2023-03-24T13:20:45.937Z,12.00
2023-03-24T13:21:23.416Z,12.10
2023-03-24T13:21:56.866Z,12.10
2023-03-24T13:22:31.103Z,12.10
2023-03-24T13:23:38.029Z,12.00
2023-03-24T13:24:14.988Z,12.00
2023-03-24T13:24:48.338Z,12.00
2023-03-24T13:25:32.308Z,13.30
2023-03-24T13:26:24.148Z,12.10
2023-03-24T13:26:58.431Z,13.20
2023-03-24T13:27:43.870Z,14.20
2023-03-24T13:28:24.969Z,12.10
2023-03-24T13:28:59.495Z,12.10
2023-03-24T13:30:05.403Z,12.10
2023-03-24T13:30:41.285Z,12.10
2023-03-24T13:31:15.440Z,12.10
2023-03-24T13:31:55.005Z,12.10
2023-03-24T13:32:40.319Z,12.80
2023-03-24T13:33:21.795Z,12.20
2023-03-24T13:33:55.885Z,12.20
2023-03-24T13:34:38.049Z,12.20
2023-03-24T13:35:28.436Z,12.20
2023-03-24T13:36:20.442Z,12.20
2023-03-24T13:37:03.907Z,12.20
2023-03-24T13:37:44.827Z,12.20
2023-03-24T13:38:38.340Z,12.20
2023-03-24T13:39:20.285Z,12.20
2023-03-24T13:39:58.674Z,13.10
2023-03-24T13:40:37.255Z,13.20
2023-03-24T13:41:27.098Z,12.20
2023-03-24T13:42:00.416Z,12.20
2023-03-24T13:42:42.206Z,12.20
2023-03-24T13:43:20.375Z,12.20
2023-03-24T13:43:59.401Z,13.30
2023-03-24T13:44:39.009Z,14.70
2023-03-24T13:45:44.631Z,12.20
2023-03-24T13:46:16.600Z,12.20
2023-03-24T13:47:15.721Z,12.20
2023-03-24T13:48:04.569Z,12.30
2023-03-24T13:48:43.285Z,12.20
2023-03-24T13:49:16.102Z,12.20
2023-03-24T13:50:13.309Z,12.30
2023-03-24T13:51:17.368Z,15.30
2023-03-24T13:51:49.215Z,12.30
2023-03-24T13:52:31.101Z,13.70
2023-03-24T13:53:16.062Z,12.30
2023-03-24T13:54:14.955Z,12.30
2023-03-24T13:54:48.929Z,12.40
2023-03-24T13:55:26.953Z,12.80
2023-03-24T13:56:00.814Z,12.30
2023-03-24T13:56:38.254Z,12.40
2023-03-24T13:57:20.395Z,12.50
2023-03-24T13:58:10.519Z,12.30
2023-03-24T13:58:48.821Z,12.40
2023-03-24T13:59:24.073Z,12.40
2023-03-24T14:00:18.412Z,12.40
2023-03-24T14:01:11.391Z,12.40
2023-03-24T14:01:47.776Z,15.70
2023-03-24T14:02:31.624Z,13.20
2023-03-24T14:03:03.595Z,12.40
2023-03-24T14:03:40.533Z,12.60
2023-03-24T14:04:15.495Z,12.40
2023-03-24T14:04:50.362Z,12.40
2023-03-24T14:05:41.645Z,15.70
2023-03-24T14:06:17.740Z,12.40
2023-03-24T14:06:58.870Z,12.40
2023-03-24T14:07:44.481Z,12.40
2023-03-24T14:08:17.365Z,12.40
2023-03-24T14:08:52.261Z,13.30
2023-03-24T14:09:31.034Z,12.40
2023-03-24T14:10:15.608Z,13.80
2023-03-24T14:10:51.736Z,12.40
2023-03-24T14:11:33.781Z,12.40
2023-03-24T14:12:09.735Z,12.40
2023-03-24T14:12:59.699Z,12.40
2023-03-24T14:13:46.284Z,12.40
2023-03-24T14:14:21.654Z,12.40
2023-03-24T14:15:12.996Z,12.40
2023-03-24T14:15:52.470Z,12.40
2023-03-24T14:16:33.697Z,12.40
2023-03-24T14:17:08.601Z,12.50
2023-03-24T14:17:45.910Z,12.50
2023-03-24T14:18:24.120Z,12.40
2023-03-24T14:19:19.718Z,12.50
2023-03-24T14:19:57.344Z,13.70
2023-03-24T14:20:36.123Z,12.50
2023-03-24T14:21:09.203Z,12.50
2023-03-24T14:21:41.570Z,13.10
2023-03-24T14:22:22.893Z,12.50
2023-03-24T14:22:55.485Z,12.50
2023-03-24T14:23:53.156Z,12.40
2023-03-24T14:24:30.779Z,12.50
2023-03-24T14:25:16.964Z,12.50
2023-03-24T14:25:55.981Z,12.50
2023-03-24T14:26:27.743Z,13.70
2023-03-24T14:26:59.766Z,13.90
2023-03-24T14:27:34.388Z,13.60
2023-03-24T14:28:33.330Z,15.60
2023-03-24T14:29:05.327Z,12.50
2023-03-24T14:29:47.323Z,12.50
2023-03-24T14:30:30.595Z,12.50
2023-03-24T14:31:16.993Z,12.60
2023-03-24T14:32:17.060Z,12.50
2023-03-24T14:33:02.766Z,12.60
2023-03-24T14:33:35.614Z,12.60
2023-03-24T14:34:17.158Z,12.70
2023-03-24T14:34:57.008Z,12.60